Time;durP1;ratioP1;P1;durP2;ratioP2;P2;SDS_P1;SDS_P2;PMS_P1;PMS_P2;Temp;Humidity;BMP_temperature;BMP_pressure;BME280_temperature;BME280_humidity;BME280_pressure;Samples;Min_cycle;Max_cycle;Signal;HPM_P1;HPM_P2
2023/10/06 00:00:35;;;;;;;11.73;3.30;;;14.70;99.90;;;;;;5084294;28;20040;-69
2023/10/06 00:03:05;;;;;;;9.27;2.75;;;14.80;99.90;;;;;;5084062;28;20564;-69
2023/10/06 00:05:31;;;;;;;9.45;2.70;;;;;;;;;;5084287;28;20113;-69
2023/10/06 00:07:57;;;;;;;14.77;3.03;;;;;;;;;;5083778;28;20040;-69
2023/10/06 00:10:27;;;;;;;6.47;2.75;;;14.80;99.90;;;;;;5084313;28;20055;-69
2023/10/06 00:12:59;;;;;;;7.15;3.28;;;14.90;99.90;;;;;;5084338;28;20424;-69
2023/10/06 00:15:35;;;;;;;10.63;2.83;;;14.80;99.90;;;;;;5084127;28;20517;-69
2023/10/06 00:18:07;;;;;;;8.27;2.90;;;;;;;;;;5084899;28;20110;-69
2023/10/06 00:20:46;;;;;;;12.48;3.20;;;14.70;99.90;;;;;;5084035;28;20097;-69
2023/10/06 00:23:14;;;;;;;9.73;3.53;;;;;;;;;;5081725;28;20048;-69
2023/10/06 00:25:43;;;;;;;10.82;3.03;;;14.80;99.90;;;;;;5083735;28;20048;-69
2023/10/06 00:28:19;;;;;;;9.65;2.88;;;15.00;99.90;;;;;;5083749;28;20058;-69
2023/10/06 00:30:47;;;;;;;7.63;2.83;;;14.80;99.90;;;;;;5083150;28;20055;-69
2023/10/06 00:33:15;;;;;;;6.90;2.72;;;15.10;99.90;;;;;;5084166;28;20044;-69
2023/10/06 00:35:41;;;;;;;9.75;2.97;;;15.00;99.90;;;;;;5094049;28;20067;-69
2023/10/06 00:38:12;;;;;;;8.98;3.20;;;;;;;;;;5083591;28;20151;-69
2023/10/06 00:40:44;;;;;;;7.88;3.30;;;14.90;99.90;;;;;;5083342;28;20040;-69
2023/10/06 00:43:15;;;;;;;8.13;3.28;;;;;;;;;;5087056;28;20123;-69
2023/10/06 00:45:44;;;;;;;13.30;5.88;;;;;;;;;;5087324;28;20051;-69
2023/10/06 00:48:14;;;;;;;10.70;3.28;;;15.20;99.90;;;;;;5086884;28;20497;-69
2023/10/06 00:50:43;;;;;;;9.63;3.17;;;15.10;99.90;;;;;;5088430;28;20036;-69
2023/10/06 00:53:12;;;;;;;10.57;3.50;;;14.90;99.90;;;;;;5081001;28;20402;-70
2023/10/06 00:55:39;;;;;;;13.90;4.50;;;15.00;99.90;;;;;;5084855;28;20169;-70
2023/10/06 00:58:11;;;;;;;9.80;4.13;;;14.90;99.90;;;;;;5088058;28;20054;-70
2023/10/06 01:00:38;;;;;;;14.07;4.40;;;14.90;99.90;;;;;;5088472;28;20466;-70
2023/10/06 01:03:14;;;;;;;13.15;4.82;;;15.00;99.90;;;;;;5086211;28;20065;-70
2023/10/06 01:05:44;;;;;;;10.63;4.20;;;14.90;99.90;;;;;;5088116;28;20055;-70
2023/10/06 01:08:11;;;;;;;9.60;4.32;;;;;;;;;;5087316;28;20190;-70
2023/10/06 01:10:37;;;;;;;9.40;3.95;;;15.00;99.90;;;;;;5096256;28;20047;-70
2023/10/06 01:13:12;;;;;;;10.20;4.88;;;;;;;;;;5069921;28;20044;-70
2023/10/06 01:15:56;;;;;;;13.02;5.40;;;14.80;99.90;;;;;;5088525;28;20055;-70
2023/10/06 01:18:35;;;;;;;15.50;5.22;;;14.90;99.90;;;;;;5085373;28;20060;-70
2023/10/06 01:21:17;;;;;;;12.77;5.10;;;;;;;;;;5086313;28;20051;-70
2023/10/06 01:23:46;;;;;;;13.77;5.13;;;15.00;99.90;;;;;;5088318;28;20048;-70
2023/10/06 01:26:13;;;;;;;12.80;5.05;;;;;;;;;;5088132;28;20114;-69
2023/10/06 01:28:45;;;;;;;10.40;5.72;;;;;;;;;;5087918;28;20052;-70
2023/10/06 01:31:12;;;;;;;19.05;5.30;;;;;;;;;;5086532;28;20786;-69
2023/10/06 01:33:38;;;;;;;14.40;5.63;;;;;;;;;;5087605;28;20152;-70
2023/10/06 01:36:13;;;;;;;14.68;6.60;;;;;;;;;;5087584;28;20501;-69
2023/10/06 01:38:43;;;;;;;12.60;6.10;;;14.90;99.90;;;;;;5085238;28;20047;-70
2023/10/06 01:41:11;;;;;;;13.68;5.97;;;14.80;99.90;;;;;;5083051;28;20070;-69
2023/10/06 01:43:38;;;;;;;13.80;6.03;;;14.80;99.90;;;;;;5087503;28;20042;-69
2023/10/06 01:46:07;;;;;;;17.35;6.85;;;;;;;;;;5086173;28;20044;-70
2023/10/06 01:48:33;;;;;;;14.10;6.20;;;;;;;;;;5087794;28;20079;-70
2023/10/06 01:50:59;;;;;;;13.40;6.07;;;;;;;;;;5086078;28;20221;-69
2023/10/06 01:53:31;;;;;;;13.93;6.45;;;14.70;99.90;;;;;;5085395;28;20047;-69
2023/10/06 01:56:01;;;;;;;12.80;6.60;;;;;;;;;;5085803;28;20040;-69
2023/10/06 01:58:27;;;;;;;12.00;6.80;;;;;;;;;;5087191;28;20402;-69
2023/10/06 02:00:53;;;;;;;13.73;5.55;;;;;;;;;;5085920;28;20036;-68
2023/10/06 02:03:21;;;;;;;14.02;6.88;;;;;;;;;;5085978;28;20823;-68
2023/10/06 02:05:47;;;;;;;12.77;6.25;;;14.80;99.90;;;;;;5086982;28;20112;-69
2023/10/06 02:08:23;;;;;;;15.63;6.15;;;;;;;;;;5086045;28;20050;-69
2023/10/06 02:10:50;;;;;;;10.07;5.70;;;;;;;;;;5086016;28;20087;-69
2023/10/06 02:13:21;;;;;;;15.50;5.80;;;14.60;99.90;;;;;;5085392;28;20477;-69
2023/10/06 02:15:59;;;;;;;11.32;5.78;;;14.90;99.90;;;;;;5087215;28;20040;-69
2023/10/06 02:18:36;;;;;;;12.30;5.65;;;15.40;99.90;;;;;;5101856;28;20498;-69
2023/10/06 02:21:16;;;;;;;12.15;6.75;;;14.80;99.90;;;;;;5085443;28;20028;-69
2023/10/06 02:23:43;;;;;;;19.55;6.20;;;;;;;;;;5085228;28;20040;-69
2023/10/06 02:26:10;;;;;;;13.60;5.93;;;14.90;99.90;;;;;;5085565;28;20047;-69
2023/10/06 02:28:44;;;;;;;16.67;7.13;;;14.90;99.90;;;;;;5086530;28;20058;-69
2023/10/06 02:31:14;;;;;;;13.25;6.35;;;15.00;99.90;;;;;;5086642;28;20045;-69
2023/10/06 02:33:40;;;;;;;18.20;6.75;;;;;;;;;;5085145;28;20768;-69
2023/10/06 02:36:15;;;;;;;16.17;7.15;;;14.80;99.90;;;;;;5085198;28;20052;-69
2023/10/06 02:38:46;;;;;;;19.67;7.43;;;14.70;99.90;;;;;;5084808;28;20040;-68
2023/10/06 02:41:18;;;;;;;20.75;7.68;;;;;;;;;;5068491;28;20378;-69
2023/10/06 02:43:44;;;;;;;21.08;7.20;;;;;;;;;;5082810;28;20055;-69
2023/10/06 02:46:11;;;;;;;20.42;7.70;;;;;;;;;;5082201;28;20536;-69
2023/10/06 02:48:37;;;;;;;20.42;7.32;;;14.70;99.90;;;;;;5083284;28;20052;-69
2023/10/06 02:51:06;;;;;;;15.00;7.22;;;;;;;;;;5085865;28;20516;-69
2023/10/06 02:53:35;;;;;;;17.80;8.05;;;;;;;;;;5084327;28;20055;-69
2023/10/06 02:56:08;;;;;;;17.80;9.15;;;14.80;99.90;;;;;;5084325;28;20050;-69
2023/10/06 02:58:35;;;;;;;17.55;7.43;;;;;;;;;;5077777;28;20052;-69
2023/10/06 03:01:03;;;;;;;18.23;7.70;;;;;;;;;;5084254;28;20035;-69
2023/10/06 03:03:33;;;;;;;20.98;7.53;;;;;;;;;;5079555;28;20067;-69
2023/10/06 03:06:06;;;;;;;17.02;7.80;;;;;;;;;;5084638;28;20040;-69
2023/10/06 03:08:35;;;;;;;18.13;7.63;;;;;;;;;;5083688;28;20474;-69
2023/10/06 03:11:01;;;;;;;16.77;7.55;;;14.90;99.90;;;;;;5067389;28;20058;-69
2023/10/06 03:13:36;;;;;;;15.32;7.93;;;;;;;;;;5084379;28;20040;-69
2023/10/06 03:16:02;;;;;;;14.20;6.88;;;;;;;;;;5084249;28;20055;-69
2023/10/06 03:18:30;;;;;;;15.48;7.63;;;;;;;;;;5083914;28;20055;-69
2023/10/06 03:21:14;;;;;;;14.88;8.05;;;14.70;99.90;;;;;;5076765;28;20094;-69
2023/10/06 03:23:43;;;;;;;19.90;8.32;;;14.50;99.90;;;;;;5083955;28;20043;-69
2023/10/06 03:26:52;;;;;;;14.43;7.93;;;;;;;;;;5083535;28;20047;-69
2023/10/06 03:29:11;;;;;;;14.98;7.30;;;;;;;;;;5068983;28;20139;-69
2023/10/06 03:31:45;;;;;;;15.65;6.93;;;14.70;99.90;;;;;;5083418;28;20440;-69
2023/10/06 03:34:16;;;;;;;14.35;7.32;;;14.60;99.90;;;;;;5084286;28;20466;-68
2023/10/06 03:36:51;;;;;;;22.30;8.23;;;14.50;99.90;;;;;;5084612;28;20040;-71
2023/10/06 03:39:31;;;;;;;18.98;8.00;;;14.60;99.90;;;;;;5084215;28;20052;-69
2023/10/06 03:42:00;;;;;;;13.15;6.88;;;14.60;99.90;;;;;;5081725;28;20036;-69
2023/10/06 03:44:29;;;;;;;16.40;6.97;;;14.50;99.90;;;;;;5084119;28;20452;-69
2023/10/06 03:47:00;;;;;;;14.35;7.05;;;;;;;;;;5084073;28;20040;-69
2023/10/06 03:49:26;;;;;;;19.15;7.85;;;;;;;;;;5084314;28;20048;-69
2023/10/06 03:51:55;;;;;;;17.55;7.55;;;14.50;99.90;;;;;;5083908;28;20059;-69
2023/10/06 03:54:21;;;;;;;19.65;6.85;;;;;;;;;;5063902;28;20052;-69
2023/10/06 03:56:49;;;;;;;15.38;7.20;;;;;;;;;;5083974;28;20098;-69
2023/10/06 03:59:15;;;;;;;16.73;6.85;;;;;;;;;;5084076;28;20071;-69
2023/10/06 04:01:44;;;;;;;12.68;6.63;;;14.40;99.90;;;;;;5067228;28;20795;-69
2023/10/06 04:04:12;;;;;;;14.40;7.35;;;14.20;99.90;;;;;;5083729;28;20482;-69
2023/10/06 04:06:39;;;;;;;19.38;7.38;;;14.40;99.90;;;;;;5085328;28;20044;-69
2023/10/06 04:09:05;;;;;;;17.63;7.50;;;;;;;;;;5083742;28;20762;-69
2023/10/06 04:11:31;;;;;;;19.80;6.53;;;;;;;;;;5067134;28;20048;-69
2023/10/06 04:13:57;;;;;;;19.77;7.45;;;14.30;99.90;;;;;;5083988;28;20055;-69
2023/10/06 04:16:23;;;;;;;12.43;6.85;;;;;;;;;;5084168;28;20409;-69
2023/10/06 04:18:50;;;;;;;16.02;6.50;;;;;;;;;;5071164;28;20122;-69
2023/10/06 04:21:16;;;;;;;20.67;7.50;;;;;;;;;;5087936;28;20372;-69
2023/10/06 04:23:42;;;;;;;14.40;6.85;;;14.30;99.90;;;;;;5087756;28;20131;-69
2023/10/06 04:26:14;;;;;;;13.70;6.22;;;14.20;99.90;;;;;;5087903;28;20159;-69
2023/10/06 04:28:39;;;;;;;21.05;7.18;;;14.20;99.90;;;;;;5087475;28;20123;-69
2023/10/06 04:31:05;;;;;;;15.30;6.72;;;;;;;;;;5088575;28;20138;-69
2023/10/06 04:33:32;;;;;;;14.07;5.47;;;14.40;99.90;;;;;;5070533;28;20121;-69
2023/10/06 04:36:07;;;;;;;16.95;6.45;;;14.30;99.90;;;;;;5088141;28;20143;-69
2023/10/06 04:38:40;;;;;;;18.73;6.45;;;14.30;99.90;;;;;;5071066;28;20048;-69
2023/10/06 04:41:10;;;;;;;17.92;7.53;;;14.30;99.90;;;;;;5087936;28;20075;-69
2023/10/06 04:43:44;;;;;;;18.17;6.25;;;14.20;99.90;;;;;;5088866;28;20484;-69
2023/10/06 04:46:10;;;;;;;19.42;5.95;;;;;;;;;;5083258;28;20118;-69
2023/10/06 04:48:36;;;;;;;11.63;5.90;;;;;;;;;;5088382;28;20113;-69
2023/10/06 04:51:04;;;;;;;11.90;5.53;;;14.30;99.90;;;;;;5086837;28;20046;-69
2023/10/06 04:53:34;;;;;;;17.83;7.88;;;14.20;99.90;;;;;;5086603;28;20039;-69
2023/10/06 04:56:03;;;;;;;14.90;5.70;;;;;;;;;;5088506;28;20035;-69
2023/10/06 04:58:29;;;;;;;13.50;5.65;;;14.40;99.90;;;;;;5088135;28;20744;-69
2023/10/06 05:00:59;;;;;;;16.10;6.40;;;14.20;99.90;;;;;;5086868;28;20064;-69
2023/10/06 05:03:26;;;;;;;10.35;5.47;;;14.30;99.90;;;;;;5086953;28;20124;-69
2023/10/06 05:05:55;;;;;;;11.65;5.93;;;;;;;;;;5084327;28;20032;-69
2023/10/06 05:08:21;;;;;;;18.30;6.20;;;;;;;;;;5085444;28;20067;-69
2023/10/06 05:10:49;;;;;;;10.88;5.10;;;;;;;;;;5086592;28;20159;-69
2023/10/06 05:13:16;;;;;;;13.55;6.18;;;;;;;;;;5086489;28;20048;-70
2023/10/06 05:15:43;;;;;;;17.83;6.97;;;;;;;;;;5086595;28;20047;-70
2023/10/06 05:18:15;;;;;;;16.40;6.50;;;14.20;99.90;;;;;;5086534;28;20056;-70
2023/10/06 05:20:42;;;;;;;16.73;6.63;;;14.30;99.90;;;;;;5084966;28;20048;-69
2023/10/06 05:23:14;;;;;;;14.00;6.10;;;;;;;;;;5087490;28;20047;-71
2023/10/06 05:25:41;;;;;;;14.55;6.15;;;14.50;99.90;;;;;;5073767;28;20603;-67
2023/10/06 05:28:10;;;;;;;17.23;6.78;;;;;;;;;;5065535;28;20664;-67
2023/10/06 05:30:38;;;;;;;14.40;6.80;;;;;;;;;;5067892;28;20044;-68
2023/10/06 05:33:04;;;;;;;13.90;6.10;;;14.40;99.90;;;;;;5085395;28;20174;-67
2023/10/06 05:35:36;;;;;;;13.82;6.32;;;14.10;99.90;;;;;;5085564;28;20048;-67
2023/10/06 05:38:13;;;;;;;15.02;6.55;;;;;;;;;;5066448;28;20051;-66
2023/10/06 05:40:43;;;;;;;11.90;6.68;;;;;;;;;;5068216;28;20481;-66
2023/10/06 05:43:11;;;;;;;14.85;6.18;;;;;;;;;;5086278;28;20081;-67
2023/10/06 05:45:41;;;;;;;14.20;6.65;;;14.20;99.90;;;;;;5085774;28;20082;-66
2023/10/06 05:48:11;;;;;;;14.90;6.60;;;14.40;99.90;;;;;;5067720;28;20050;-66
2023/10/06 05:51:09;;;;;;;12.88;6.18;;;14.40;99.90;;;;;;5084441;28;20089;-70
2023/10/06 05:53:59;;;;;;;11.65;6.57;;;;;;;;;;5036352;28;21374;-69
2023/10/06 05:56:29;;;;;;;17.88;6.97;;;;;;;;;;5007740;28;20060;-70
2023/10/06 05:58:55;;;;;;;9.82;5.93;;;;;;;;;;5022548;28;20136;-70
2023/10/06 06:01:28;;;;;;;21.63;8.32;;;;;;;;;;5001316;28;20055;-69
2023/10/06 06:03:57;;;;;;;20.30;6.68;;;;;;;;;;4998645;28;20191;-67
2023/10/06 06:06:24;;;;;;;12.60;6.15;;;;;;;;;;5019561;28;20056;-68
2023/10/06 06:08:51;;;;;;;13.15;6.68;;;14.50;99.90;;;;;;5035763;28;20091;-66
2023/10/06 06:11:17;;;;;;;14.20;6.65;;;;;;;;;;5026271;28;20099;-67
2023/10/06 06:13:44;;;;;;;17.80;6.80;;;;;;;;;;5022298;28;20049;-68
2023/10/06 06:16:10;;;;;;;16.17;6.95;;;;;;;;;;5018142;28;20057;-67
2023/10/06 06:18:42;;;;;;;12.63;6.28;;;;;;;;;;5024229;28;20046;-70
2023/10/06 06:21:24;;;;;;;15.15;6.72;;;;;;;;;;4999380;28;20042;-68
2023/10/06 06:24:06;;;;;;;12.95;6.18;;;;;;;;;;5012228;28;20045;-67
2023/10/06 06:26:31;;;;;;;20.23;7.57;;;;;;;;;;5022995;28;20051;-67
2023/10/06 06:29:02;;;;;;;14.52;6.45;;;14.70;99.90;;;;;;5016743;28;20052;-68
2023/10/06 06:31:37;;;;;;;15.50;7.10;;;14.70;99.90;;;;;;5023529;28;20059;-70
2023/10/06 06:34:06;;;;;;;19.15;7.38;;;;;;;;;;5006175;28;20132;-67
2023/10/06 06:36:32;;;;;;;22.88;7.68;;;;;;;;;;5019064;28;20090;-67
2023/10/06 06:38:58;;;;;;;13.60;6.88;;;;;;;;;;5015216;28;20045;-66
2023/10/06 06:41:24;;;;;;;17.35;7.13;;;;;;;;;;5033101;28;20041;-66
2023/10/06 06:43:57;;;;;;;17.42;8.07;;;14.60;99.90;;;;;;5037734;28;20061;-66
2023/10/06 06:46:23;;;;;;;12.82;6.93;;;;;;;;;;5036258;28;21052;-66
2023/10/06 06:48:49;;;;;;;22.58;8.05;;;;;;;;;;5035500;28;20765;-67
2023/10/06 06:51:15;;;;;;;14.25;8.15;;;;;;;;;;5020878;28;20055;-66
2023/10/06 06:53:41;;;;;;;10.73;6.95;;;;;;;;;;5032920;28;20037;-67
2023/10/06 06:56:10;;;;;;;13.40;7.22;;;;;;;;;;5040952;28;20044;-67
2023/10/06 06:58:37;;;;;;;16.98;7.60;;;;;;;;;;5035325;28;20033;-67
2023/10/06 07:01:06;;;;;;;19.10;6.88;;;;;;;;;;5015269;28;20082;-67
2023/10/06 07:03:31;;;;;;;20.38;7.60;;;14.50;99.90;;;;;;5044893;28;20446;-67
2023/10/06 07:05:57;;;;;;;14.98;7.25;;;;;;;;;;5092824;28;20070;-67
2023/10/06 07:08:24;;;;;;;16.88;7.40;;;;;;;;;;5089532;28;20047;-67
2023/10/06 07:10:53;;;;;;;12.07;6.70;;;;;;;;;;5088482;28;20044;-67
2023/10/06 07:13:22;;;;;;;16.15;7.05;;;;;;;;;;5086951;28;20039;-67
2023/10/06 07:15:51;;;;;;;17.77;7.38;;;14.70;99.90;;;;;;5091837;28;20043;-67
2023/10/06 07:18:19;;;;;;;17.25;7.35;;;14.50;99.90;;;;;;5082346;28;20051;-67
2023/10/06 07:20:45;;;;;;;19.30;7.40;;;;;;;;;;5087984;28;20059;-67
2023/10/06 07:23:11;;;;;;;16.10;7.80;;;14.60;99.90;;;;;;5091256;28;20043;-67
2023/10/06 07:25:37;;;;;;;13.80;7.57;;;14.60;99.90;;;;;;5089622;28;20044;-67
2023/10/06 07:28:05;;;;;;;13.95;6.78;;;14.60;99.90;;;;;;5085823;28;20050;-67
2023/10/06 07:30:34;;;;;;;16.15;7.35;;;14.70;99.90;;;;;;5081562;28;20062;-67
2023/10/06 07:33:00;;;;;;;20.55;9.45;;;;;;;;;;5085648;28;20497;-66
2023/10/06 07:35:47;;;;;;;17.60;6.85;;;14.70;99.90;;;;;;5086221;28;20044;-67
2023/10/06 07:38:13;;;;;;;16.48;7.65;;;;;;;;;;5085971;28;20127;-67
2023/10/06 07:40:40;;;;;;;16.65;8.65;;;14.60;99.90;;;;;;5084483;28;20052;-66
2023/10/06 07:43:07;;;;;;;18.35;7.80;;;14.70;99.90;;;;;;5086026;28;20040;-65
2023/10/06 07:45:34;;;;;;;16.17;7.55;;;14.90;99.90;;;;;;5084458;28;20051;-67
2023/10/06 07:48:00;;;;;;;16.27;6.95;;;;;;;;;;5085820;28;20041;-67
2023/10/06 07:50:28;;;;;;;17.10;7.55;;;;;;;;;;5085609;28;20461;-66
2023/10/06 07:52:55;;;;;;;15.40;6.70;;;;;;;;;;5089624;28;20555;-67
2023/10/06 07:55:23;;;;;;;17.42;7.60;;;;;;;;;;5090632;28;20402;-66
2023/10/06 07:57:48;;;;;;;16.15;7.20;;;14.90;99.90;;;;;;5088903;28;20050;-67
2023/10/06 08:00:26;;;;;;;16.02;6.18;;;14.90;99.90;;;;;;5089049;28;20696;-67
2023/10/06 08:02:52;;;;;;;16.70;6.93;;;15.10;99.90;;;;;;5090075;28;20032;-67
2023/10/06 08:05:19;;;;;;;16.73;7.18;;;15.00;99.90;;;;;;5089915;28;20124;-67
2023/10/06 08:07:44;;;;;;;11.60;6.30;;;15.10;99.90;;;;;;5088281;28;20082;-67
2023/10/06 08:10:15;;;;;;;13.82;7.00;;;15.30;99.90;;;;;;5090007;28;20622;-66
2023/10/06 08:12:43;;;;;;;20.10;7.07;;;;;;;;;;5088299;28;20036;-67
2023/10/06 08:15:09;;;;;;;15.20;7.07;;;15.20;99.90;;;;;;5088838;28;20051;-67
2023/10/06 08:17:38;;;;;;;15.05;7.13;;;15.20;99.90;;;;;;5087979;28;20572;-66
2023/10/06 08:20:12;;;;;;;16.30;6.53;;;15.10;99.90;;;;;;5085196;28;20121;-67
2023/10/06 08:22:38;;;;;;;17.40;6.53;;;15.30;99.90;;;;;;5088320;28;20119;-67
2023/10/06 08:25:05;;;;;;;19.35;7.70;;;15.70;99.90;;;;;;5088569;28;20374;-67
2023/10/06 08:27:35;;;;;;;17.40;7.25;;;15.70;99.90;;;;;;5089248;28;20434;-67
2023/10/06 08:30:01;;;;;;;14.80;6.70;;;;;;;;;;5087781;28;20589;-67
2023/10/06 08:32:27;;;;;;;23.10;7.50;;;;;;;;;;5089163;28;20136;-66
2023/10/06 08:34:53;;;;;;;13.63;6.68;;;15.60;99.90;;;;;;5088097;28;20040;-65
2023/10/06 08:37:19;;;;;;;15.32;6.85;;;15.60;99.90;;;;;;5088912;28;20044;-67
2023/10/06 08:39:46;;;;;;;15.25;6.97;;;15.50;99.90;;;;;;5089219;28;20036;-67
2023/10/06 08:42:15;;;;;;;14.73;6.55;;;15.90;99.90;;;;;;5088965;28;20075;-67
2023/10/06 08:44:44;;;;;;;18.27;7.30;;;;;;;;;;5088850;28;20044;-67
2023/10/06 08:47:13;;;;;;;15.85;7.38;;;15.80;99.90;;;;;;5087167;28;20032;-68
2023/10/06 08:49:43;;;;;;;16.27;6.53;;;15.50;99.90;;;;;;5087340;28;20493;-67
2023/10/06 08:52:12;;;;;;;16.35;6.97;;;15.60;99.90;;;;;;5084744;28;20066;-67
2023/10/06 08:54:38;;;;;;;14.05;6.63;;;15.70;99.90;;;;;;5089123;28;20036;-67
2023/10/06 08:57:04;;;;;;;16.45;6.55;;;;;;;;;;5087856;28;20497;-67
2023/10/06 08:59:33;;;;;;;14.75;6.63;;;15.80;99.90;;;;;;5087436;28;20455;-67
2023/10/06 09:02:02;;;;;;;21.20;7.13;;;15.80;99.90;;;;;;5088065;28;20382;-67
2023/10/06 09:04:34;;;;;;;18.30;6.38;;;16.20;99.90;;;;;;5088415;28;20043;-67
2023/10/06 09:07:12;;;;;;;18.10;6.25;;;16.20;99.90;;;;;;5089129;28;20036;-67
2023/10/06 09:09:42;;;;;;;15.32;5.70;;;16.10;99.90;;;;;;5088055;28;20036;-67
2023/10/06 09:12:19;;;;;;;16.70;5.80;;;16.40;99.90;;;;;;5089017;28;20079;-67
2023/10/06 09:14:54;;;;;;;15.30;5.88;;;16.90;99.90;;;;;;5088264;28;20032;-67
2023/10/06 09:17:33;;;;;;;18.13;5.72;;;17.70;99.90;;;;;;5069823;28;20052;-67
2023/10/06 09:19:59;;;;;;;10.93;5.47;;;;;;;;;;5088717;28;20064;-67
2023/10/06 09:22:29;;;;;;;19.17;5.40;;;17.20;99.90;;;;;;5086955;28;20051;-67
2023/10/06 09:25:04;;;;;;;15.50;4.68;;;17.70;99.90;;;;;;5086628;28;20048;-67
2023/10/06 09:27:30;;;;;;;13.05;4.97;;;;;;;;;;5084893;28;20040;-67
2023/10/06 09:30:05;;;;;;;12.15;4.97;;;17.60;99.90;;;;;;5087094;28;20047;-68
2023/10/06 09:32:31;;;;;;;;;;;17.70;99.90;;;;;;5086914;28;20121;-67
2023/10/06 09:34:57;;;;;;;12.82;4.78;;;;;;;;;;5088165;28;20346;-66
2023/10/06 09:37:24;;;;;;;11.20;4.18;;;17.40;99.90;;;;;;5086463;28;20063;-67
2023/10/06 09:40:10;;;;;;;18.15;4.70;;;17.60;99.90;;;;;;5086360;28;20126;-66
2023/10/06 09:42:36;;;;;;;12.23;4.35;;;17.40;99.90;;;;;;5083694;28;20043;-67
2023/10/06 09:45:07;;;;;;;13.18;4.55;;;17.70;99.90;;;;;;5088019;28;20778;-66
2023/10/06 09:47:40;;;;;;;12.95;3.80;;;17.90;99.90;;;;;;5081586;28;20052;-67
2023/10/06 09:50:07;;;;;;;9.68;3.55;;;17.70;99.90;;;;;;5087631;28;20486;-67
2023/10/06 09:52:34;;;;;;;13.70;4.55;;;17.70;99.90;;;;;;5087576;28;20643;-67
2023/10/06 09:55:04;;;;;;;14.40;3.92;;;17.60;99.90;;;;;;5087381;28;20123;-67
2023/10/06 09:57:35;;;;;;;13.00;4.20;;;17.70;99.90;;;;;;5086166;28;20066;-68
2023/10/06 10:00:01;;;;;;;13.75;4.20;;;;;;;;;;5078728;28;20795;-67
2023/10/06 10:02:29;;;;;;;16.85;4.30;;;17.80;99.90;;;;;;5085965;28;20125;-67
2023/10/06 10:04:59;;;;;;;11.27;4.28;;;17.60;99.90;;;;;;5086155;28;20040;-67
2023/10/06 10:07:28;;;;;;;12.82;4.13;;;17.90;99.90;;;;;;5085799;28;20112;-67
2023/10/06 10:09:55;;;;;;;14.02;3.97;;;18.10;99.90;;;;;;5087518;28;20089;-67
2023/10/06 10:12:37;;;;;;;10.40;4.32;;;18.40;99.90;;;;;;5087100;28;20036;-68
2023/10/06 10:15:40;;;;;;;15.30;3.88;;;18.40;99.90;;;;;;5084289;28;20577;-67
2023/10/06 10:18:24;;;;;;;11.93;3.92;;;17.90;99.90;;;;;;5086574;28;20819;-67
2023/10/06 10:20:50;;;;;;;15.73;4.07;;;18.10;99.90;;;;;;5085246;28;20086;-67
2023/10/06 10:23:16;;;;;;;14.68;4.57;;;17.90;99.90;;;;;;5086737;28;20367;-67
2023/10/06 10:25:44;;;;;;;14.75;4.60;;;18.10;99.90;;;;;;5085330;28;20731;-67
2023/10/06 10:28:19;;;;;;;19.27;4.53;;;17.90;99.90;;;;;;5086716;28;20048;-67
2023/10/06 10:31:17;;;;;;;15.13;4.35;;;18.10;99.90;;;;;;5086801;28;20112;-67
2023/10/06 10:33:44;;;;;;;19.92;5.22;;;17.90;99.90;;;;;;5080521;28;20093;-67
2023/10/06 10:36:13;;;;;;;18.35;4.47;;;17.80;99.90;;;;;;5086581;28;20093;-67
2023/10/06 10:38:39;;;;;;;18.63;4.70;;;;;;;;;;5084875;28;20051;-67
2023/10/06 10:41:08;;;;;;;11.88;4.00;;;17.70;99.90;;;;;;5086822;28;20069;-67
2023/10/06 10:43:45;;;;;;;17.98;3.88;;;17.80;99.90;;;;;;5086121;28;20061;-67
2023/10/06 10:46:14;;;;;;;15.07;3.95;;;;;;;;;;5086534;28;20039;-67
2023/10/06 10:48:49;;;;;;;12.30;4.80;;;17.70;99.90;;;;;;5084855;28;20087;-66
2023/10/06 10:51:15;;;;;;;14.70;4.55;;;;;;;;;;5085901;28;20051;-67
2023/10/06 10:53:43;;;;;;;11.80;4.18;;;17.70;99.90;;;;;;5084958;28;20044;-68
2023/10/06 10:56:13;;;;;;;12.70;3.58;;;17.80;99.90;;;;;;5087141;28;20105;-66
2023/10/06 10:58:42;;;;;;;11.70;3.40;;;17.80;99.90;;;;;;5084385;28;20055;-67
2023/10/06 11:01:36;;;;;;;13.27;3.33;;;17.70;99.90;;;;;;5062243;28;20075;-67
2023/10/06 11:04:29;;;;;;;14.85;3.70;;;17.70;99.90;;;;;;5084879;28;20047;-68
2023/10/06 11:07:07;;;;;;;12.07;3.67;;;17.90;99.90;;;;;;5082162;28;20047;-67
2023/10/06 11:12:05;;;;;;;11.90;3.67;;;17.90;99.90;;;;;;5085064;28;20511;-67
2023/10/06 11:14:37;;;;;;;17.02;4.43;;;17.70;99.90;;;;;;5086322;28;20036;-67
2023/10/06 11:17:03;;;;;;;20.05;4.32;;;17.70;99.90;;;;;;5085336;28;20047;-67
2023/10/06 11:19:33;;;;;;;14.27;3.88;;;17.70;99.90;;;;;;5086177;28;20048;-67
2023/10/06 11:22:14;;;;;;;11.63;3.35;;;17.60;99.90;;;;;;5086559;28;20113;-67
2023/10/06 11:24:41;;;;;;;19.98;4.50;;;17.80;99.90;;;;;;5083648;28;20109;-67
2023/10/06 11:27:22;;;;;;;15.65;4.30;;;17.80;99.90;;;;;;5085791;28;20040;-67
2023/10/06 11:29:52;;;;;;;15.68;3.45;;;17.80;99.90;;;;;;5083413;28;20489;-67
2023/10/06 11:32:19;;;;;;;9.50;3.63;;;17.90;99.90;;;;;;5085888;28;20040;-67
2023/10/06 11:34:45;;;;;;;11.85;4.05;;;17.70;99.90;;;;;;5085340;28;20048;-66
2023/10/06 11:37:17;;;;;;;18.08;3.97;;;18.30;99.90;;;;;;5086330;28;20111;-67
2023/10/06 11:39:43;;;;;;;12.30;5.80;;;18.10;99.90;;;;;;5084777;28;20090;-67
2023/10/06 11:42:24;;;;;;;11.98;4.28;;;18.20;99.90;;;;;;5084224;28;20212;-67
2023/10/06 11:44:54;;;;;;;13.88;4.60;;;;;;;;;;5084281;28;20040;-66
2023/10/06 11:47:22;;;;;;;15.68;4.47;;;18.20;99.90;;;;;;5084260;28;20043;-67
2023/10/06 11:50:03;;;;;;;17.05;3.70;;;18.30;99.90;;;;;;5084148;28;20047;-68
2023/10/06 11:52:29;;;;;;;17.13;5.20;;;18.40;99.90;;;;;;5085286;28;20036;-68
2023/10/06 11:54:57;;;;;;;12.40;3.95;;;18.40;99.90;;;;;;5067262;28;20070;-67
2023/10/06 11:57:46;;;;;;;11.45;3.88;;;18.50;99.90;;;;;;5083844;28;20873;-68
2023/10/06 12:00:17;;;;;;;14.30;3.88;;;18.40;99.90;;;;;;5084432;28;20094;-67
2023/10/06 12:02:45;;;;;;;13.25;3.78;;;18.50;99.90;;;;;;5085408;28;20502;-67
2023/10/06 12:05:13;;;;;;;14.43;3.67;;;18.50;99.90;;;;;;5084465;28;21290;-67
2023/10/06 12:07:39;;;;;;;11.75;3.30;;;18.50;99.90;;;;;;5085309;28;20089;-67
2023/10/06 12:10:06;;;;;;;19.95;4.20;;;;;;;;;;5083973;28;20044;-67
2023/10/06 12:12:32;;;;;;;11.35;3.17;;;;;;;;;;5085688;28;20071;-67
2023/10/06 12:14:57;;;;;;;13.68;4.13;;;18.70;99.90;;;;;;5085550;28;20064;-68
2023/10/06 12:17:26;;;;;;;16.92;3.30;;;18.60;99.90;;;;;;5083923;28;20059;-66
2023/10/06 12:19:53;;;;;;;15.45;4.60;;;;;;;;;;5085588;28;20044;-68
2023/10/06 12:22:20;;;;;;;16.33;3.20;;;18.50;99.90;;;;;;5084285;28;20040;-66
2023/10/06 12:24:45;;;;;;;14.20;3.22;;;18.50;99.90;;;;;;5083864;28;20046;-67
2023/10/06 12:27:17;;;;;;;16.30;2.92;;;;;;;;;;5085321;28;20048;-67
2023/10/06 12:29:43;;;;;;;11.70;3.28;;;18.60;99.90;;;;;;5084247;28;20043;-67
2023/10/06 12:32:10;;;;;;;13.98;3.15;;;18.60;99.90;;;;;;5085182;28;20563;-67
2023/10/06 12:34:36;;;;;;;13.05;3.97;;;;;;;;;;5084221;28;20493;-66
2023/10/06 12:37:03;;;;;;;11.98;3.13;;;;;;;;;;5085160;28;20097;-67
2023/10/06 12:39:34;;;;;;;15.02;3.05;;;18.60;99.90;;;;;;5087951;28;20044;-67
2023/10/06 12:42:07;;;;;;;16.23;4.45;;;18.70;99.90;;;;;;5089273;28;20674;-67
2023/10/06 12:44:39;;;;;;;13.23;3.50;;;18.70;99.90;;;;;;5087692;28;20051;-67
2023/10/06 12:47:10;;;;;;;10.80;4.07;;;18.70;99.90;;;;;;5087748;28;20052;-67
2023/10/06 12:49:36;;;;;;;16.50;3.58;;;;;;;;;;5087891;28;20051;-66
2023/10/06 12:52:02;;;;;;;15.07;3.75;;;;;;;;;;5089201;28;20047;-67
2023/10/06 12:54:29;;;;;;;15.27;4.25;;;18.60;99.90;;;;;;5089171;28;20036;-67
2023/10/06 12:56:55;;;;;;;16.48;3.30;;;18.50;99.90;;;;;;5089032;28;20107;-67
2023/10/06 12:59:21;;;;;;;18.00;4.32;;;;;;;;;;5087005;28;20052;-67
2023/10/06 13:01:49;;;;;;;16.77;3.40;;;;;;;;;;5088185;28;20036;-67
2023/10/06 13:04:15;;;;;;;10.40;3.10;;;18.50;99.90;;;;;;5086717;28;20524;-67
2023/10/06 13:06:41;;;;;;;15.10;3.28;;;;;;;;;;5088530;28;20044;-67
2023/10/06 13:09:08;;;;;;;9.32;3.15;;;18.50;99.90;;;;;;5088251;28;20571;-67
2023/10/06 13:11:34;;;;;;;14.23;3.55;;;18.40;99.90;;;;;;5087085;28;20404;-68
2023/10/06 13:14:03;;;;;;;16.17;3.53;;;18.50;99.90;;;;;;5086683;28;20044;-67
2023/10/06 13:16:32;;;;;;;18.73;3.95;;;18.50;99.90;;;;;;5088208;28;20064;-67
2023/10/06 13:18:58;;;;;;;11.13;2.45;;;;;;;;;;5087840;28;20173;-67
2023/10/06 13:21:24;;;;;;;14.70;3.25;;;18.80;99.90;;;;;;5086918;28;20446;-67
2023/10/06 13:23:50;;;;;;;13.38;3.47;;;18.90;99.90;;;;;;5087677;28;20055;-67
2023/10/06 13:26:18;;;;;;;10.15;2.75;;;18.90;99.90;;;;;;5087602;28;20044;-68
2023/10/06 13:28:45;;;;;;;14.55;2.88;;;18.90;99.90;;;;;;5086034;28;20105;-67
2023/10/06 13:31:11;;;;;;;18.73;3.25;;;19.00;99.90;;;;;;5087943;28;20062;-67
2023/10/06 13:33:36;;;;;;;15.13;3.22;;;18.90;99.90;;;;;;5087508;28;20553;-67